Terminal Aerodrome Forecast
Issued by NWS Paducah, KY

Home | Current Version | Previous Version | Text Only | Print | Product List | Glossary Off
Versions: 1 2 3 4 5 6 7 8 9 10 11 12 13

809
FTUS43 KPAH 131720
TAFPAH
TAF
KPAH 131720Z 1318/1418 22019G32KT P6SM SCT250
     FM132200 24009KT P6SM FEW250
     FM140300 30009KT P6SM SCT050
     FM140900 34008KT P6SM SCT040 BKN250=

USA.gov is the U.S. government's official web portal to all federal, state and local government web resources and services.